Station: ELLX - 20/07/2024 05:50Z (il y a 9 minutes)
ELLX 200550Z 08003KT 050V110 CAVOK 21/16 Q1013 NOSIG
Vent du 080º - 3 kt (vent de direction variable de 050º à 110º)
Visibilité > 10 km et plafond haut ou pas de nuages significatifs
Température: +21ºC - Point de rosée: +16ºC - QNH: 1013 hPa
Pas de changement significatif prévu dans les 2 heures qui suivent l'observation